createdAt,value
2018-01-29T00:01:05.174Z,8.48
2018-01-29T00:03:32.309Z,8.65
2018-01-29T00:05:58.714Z,8.43
2018-01-29T00:08:25.094Z,7.60
2018-01-29T00:10:52.247Z,6.40
2018-01-29T00:13:19.481Z,7.43
2018-01-29T00:15:45.907Z,7.47
2018-01-29T00:18:12.337Z,10.00
2018-01-29T00:20:38.773Z,8.35
2018-01-29T00:23:05.210Z,7.93
2018-01-29T00:25:31.608Z,8.88
2018-01-29T00:27:58.044Z,7.55
2018-01-29T00:30:24.526Z,7.25
2018-01-29T00:32:50.902Z,7.28
2018-01-29T00:35:17.316Z,7.75
2018-01-29T00:37:44.485Z,6.30
2018-01-29T00:40:10.942Z,6.97
2018-01-29T00:42:37.368Z,6.55
2018-01-29T00:45:03.793Z,7.15
2018-01-29T00:47:30.194Z,6.65
2018-01-29T00:49:57.353Z,5.65
2018-01-29T00:52:24.491Z,6.55
2018-01-29T00:54:50.888Z,6.05
2018-01-29T00:57:17.304Z,6.07
2018-01-29T00:59:43.716Z,7.55
2018-01-29T01:02:10.145Z,6.30
2018-01-29T01:04:37.278Z,6.10
2018-01-29T01:07:04.448Z,5.95
2018-01-29T01:09:30.885Z,5.78
2018-01-29T01:11:58.046Z,5.37
2018-01-29T01:14:25.205Z,5.53
2018-01-29T01:16:51.596Z,5.18
2018-01-29T01:19:18.070Z,5.15
2018-01-29T01:21:44.515Z,5.00
2018-01-29T01:24:10.953Z,6.00
2018-01-29T01:26:37.374Z,5.80
2018-01-29T01:29:03.746Z,5.93
2018-01-29T01:31:30.157Z,8.15
2018-01-29T01:33:56.542Z,6.15
2018-01-29T01:36:23.737Z,5.65
2018-01-29T01:38:50.162Z,5.32
2018-01-29T01:41:16.601Z,7.37
2018-01-29T01:43:43.005Z,4.87
2018-01-29T01:46:10.181Z,5.10
2018-01-29T01:48:36.636Z,4.70
2018-01-29T01:51:03.113Z,4.97
2018-01-29T01:53:29.549Z,6.20
2018-01-29T01:55:55.939Z,6.18
2018-01-29T01:58:22.354Z,6.15
2018-01-29T02:00:48.761Z,6.20
2018-01-29T02:03:15.933Z,5.12
2018-01-29T02:05:42.360Z,6.22
2018-01-29T02:08:09.494Z,5.70
2018-01-29T02:10:35.957Z,4.57
2018-01-29T02:13:02.387Z,5.60
2018-01-29T02:15:28.822Z,5.50
2018-01-29T02:17:55.979Z,5.07
2018-01-29T02:20:22.408Z,5.47
2018-01-29T02:22:48.942Z,5.12
2018-01-29T02:25:16.103Z,5.05
2018-01-29T02:27:42.566Z,4.87
2018-01-29T02:30:08.964Z,6.05
2018-01-29T02:32:36.117Z,4.80
2018-01-29T02:35:03.286Z,5.25
2018-01-29T02:37:29.719Z,4.57
2018-01-29T02:39:56.159Z,5.87
2018-01-29T02:42:22.581Z,5.15
2018-01-29T02:44:48.966Z,4.30
2018-01-29T02:47:15.417Z,5.60
2018-01-29T02:49:41.857Z,4.30
2018-01-29T02:52:09.038Z,5.30
2018-01-29T02:54:35.526Z,5.37
2018-01-29T02:57:01.977Z,5.00
2018-01-29T02:59:28.436Z,5.07
2018-01-29T03:01:55.584Z,6.28
2018-01-29T03:04:22.733Z,7.12
2018-01-29T03:06:49.873Z,4.70
2018-01-29T03:09:17.034Z,5.45
2018-01-29T03:11:44.217Z,4.55
2018-01-29T03:14:10.613Z,6.00
2018-01-29T03:16:37.761Z,4.68
2018-01-29T03:19:04.913Z,4.82
2018-01-29T03:21:32.057Z,6.10
2018-01-29T03:23:58.529Z,6.18
2018-01-29T03:26:24.980Z,5.12
2018-01-29T03:28:51.377Z,6.25
2018-01-29T03:31:18.557Z,5.62
2018-01-29T03:33:44.994Z,5.75
2018-01-29T03:36:11.400Z,6.80
2018-01-29T03:38:38.545Z,5.45
2018-01-29T03:41:05.711Z,6.55
2018-01-29T03:43:32.863Z,7.50
2018-01-29T03:45:59.271Z,6.55
2018-01-29T03:48:25.691Z,5.85
2018-01-29T03:50:52.145Z,6.72
2018-01-29T03:53:19.335Z,6.12
2018-01-29T03:55:45.770Z,6.07
2018-01-29T03:58:12.197Z,7.28
2018-01-29T04:00:38.629Z,7.75
2018-01-29T04:03:05.161Z,6.12
2018-01-29T04:05:31.602Z,9.90
2018-01-29T04:07:58.055Z,7.75
2018-01-29T04:10:24.498Z,6.35
2018-01-29T04:12:50.925Z,6.15
2018-01-29T04:15:17.410Z,7.25
2018-01-29T04:17:43.824Z,8.65
2018-01-29T04:20:10.254Z,6.28
2018-01-29T04:22:36.650Z,7.90
2018-01-29T04:25:03.090Z,7.35
2018-01-29T04:27:29.521Z,7.87
2018-01-29T04:29:55.945Z,7.45
2018-01-29T04:32:22.385Z,8.20
2018-01-29T04:34:48.778Z,7.35
2018-01-29T04:37:15.189Z,9.30
2018-01-29T04:39:41.604Z,7.18
2018-01-29T04:42:08.025Z,7.70
2018-01-29T04:44:34.523Z,7.22
2018-01-29T04:47:01.174Z,8.68
2018-01-29T04:49:28.321Z,9.07
2018-01-29T04:51:54.753Z,7.80
2018-01-29T04:54:21.909Z,7.95
2018-01-29T04:56:49.042Z,9.63
2018-01-29T04:59:15.464Z,9.25
2018-01-29T05:01:41.843Z,8.75
2018-01-29T05:04:09.083Z,7.28
2018-01-29T05:06:36.318Z,9.07
2018-01-29T05:09:02.754Z,9.07
2018-01-29T05:11:29.162Z,7.72
2018-01-29T05:13:55.590Z,8.13
2018-01-29T05:16:21.969Z,7.60
2018-01-29T05:18:49.109Z,11.05
2018-01-29T05:21:15.613Z,10.65
2018-01-29T05:23:42.017Z,10.00
2018-01-29T05:26:08.449Z,8.68
2018-01-29T05:28:34.857Z,8.63
2018-01-29T05:31:01.338Z,10.80
2018-01-29T05:33:27.843Z,9.23
2018-01-29T05:36:06.982Z,10.88
2018-01-29T05:38:35.338Z,9.48
2018-01-29T05:41:01.756Z,7.87
2018-01-29T05:43:28.403Z,11.88
2018-01-29T05:45:54.864Z,10.70
2018-01-29T05:48:21.337Z,10.93
2018-01-29T05:50:47.817Z,8.40
2018-01-29T05:53:15.043Z,9.98
2018-01-29T05:55:41.477Z,9.27
2018-01-29T05:58:07.945Z,9.02
2018-01-29T06:00:35.177Z,12.25
2018-01-29T06:03:01.592Z,11.07
2018-01-29T06:05:28.059Z,12.00
2018-01-29T06:07:54.462Z,10.10
2018-01-29T06:10:20.890Z,10.75
2018-01-29T06:12:47.360Z,11.00
2018-01-29T06:15:13.807Z,10.23
2018-01-29T06:17:40.998Z,11.50
2018-01-29T06:20:07.461Z,9.27
2018-01-29T06:22:33.933Z,12.00
2018-01-29T06:25:01.150Z,12.15
2018-01-29T06:27:27.659Z,10.10
2018-01-29T06:29:54.064Z,10.50
2018-01-29T06:32:21.262Z,9.82
2018-01-29T06:34:47.682Z,10.70
2018-01-29T06:37:14.130Z,11.25
2018-01-29T06:39:40.580Z,9.80
2018-01-29T06:42:25.162Z,8.35
2018-01-29T06:44:51.614Z,10.50
2018-01-29T06:47:18.786Z,12.18
2018-01-29T06:49:45.209Z,11.60
2018-01-29T06:52:12.363Z,12.43
2018-01-29T06:54:39.565Z,14.63
2018-01-29T06:57:06.002Z,11.90
2018-01-29T06:59:32.422Z,13.95
2018-01-29T07:01:58.831Z,10.48
2018-01-29T07:04:25.301Z,13.10
2018-01-29T07:06:51.695Z,10.25
2018-01-29T07:09:18.089Z,12.30
2018-01-29T07:11:45.357Z,11.55
2018-01-29T07:14:11.750Z,11.73
2018-01-29T07:16:38.157Z,10.30
2018-01-29T07:19:04.554Z,9.15
2018-01-29T07:21:31.004Z,11.77
2018-01-29T07:23:58.309Z,10.20
2018-01-29T07:26:24.765Z,9.98
2018-01-29T07:28:51.196Z,11.70
2018-01-29T07:31:17.626Z,11.07
2018-01-29T07:33:44.089Z,13.18
2018-01-29T07:36:10.510Z,12.73
2018-01-29T07:38:36.920Z,12.63
2018-01-29T07:41:03.321Z,13.35
2018-01-29T07:43:29.739Z,13.20
2018-01-29T07:45:56.931Z,13.25
2018-01-29T07:48:23.358Z,13.27
2018-01-29T07:50:49.808Z,12.45
2018-01-29T07:53:16.214Z,13.50
2018-01-29T07:55:50.414Z,12.85
2018-01-29T07:58:17.570Z,10.15
2018-01-29T08:00:44.737Z,13.88
2018-01-29T08:03:11.155Z,13.15
2018-01-29T08:05:38.272Z,13.90
2018-01-29T08:08:04.720Z,13.23
2018-01-29T08:10:31.107Z,13.57
2018-01-29T08:12:57.598Z,12.80
2018-01-29T08:15:24.814Z,13.60
2018-01-29T08:17:51.262Z,11.98
2018-01-29T08:20:17.653Z,15.52
2018-01-29T08:22:44.844Z,11.63
2018-01-29T08:25:11.235Z,14.52
2018-01-29T08:27:37.664Z,13.68
2018-01-29T08:30:04.091Z,12.98
2018-01-29T08:32:30.595Z,11.90
2018-01-29T08:34:57.739Z,12.63
2018-01-29T08:37:24.206Z,10.68
2018-01-29T08:39:51.343Z,14.27
2018-01-29T08:42:18.495Z,13.27
2018-01-29T08:44:45.699Z,12.95
2018-01-29T08:47:12.171Z,13.23
2018-01-29T08:49:38.602Z,15.02
2018-01-29T08:52:05.014Z,15.15
2018-01-29T08:54:31.423Z,14.10
2018-01-29T08:56:57.807Z,14.10
2018-01-29T08:59:24.219Z,14.55
2018-01-29T09:01:50.730Z,14.77
2018-01-29T09:04:17.838Z,13.80
2018-01-29T09:06:45.046Z,15.70
2018-01-29T09:09:11.459Z,14.98
2018-01-29T09:11:37.899Z,14.80
2018-01-29T09:14:04.366Z,14.55
2018-01-29T09:16:30.786Z,14.93
2018-01-29T09:18:57.211Z,13.02
2018-01-29T09:21:23.649Z,13.13
2018-01-29T09:23:50.058Z,12.15
2018-01-29T09:26:16.439Z,12.23
2018-01-29T09:28:42.903Z,12.15
2018-01-29T09:31:09.298Z,11.80
2018-01-29T09:33:35.740Z,14.48
2018-01-29T09:36:02.139Z,13.55
2018-01-29T09:38:28.626Z,12.50
2018-01-29T09:40:55.042Z,12.25
2018-01-29T09:43:21.503Z,20.23
2018-01-29T09:45:47.918Z,13.10
2018-01-29T09:48:14.390Z,12.73
2018-01-29T09:50:41.615Z,14.25
2018-01-29T09:53:08.051Z,14.30
2018-01-29T09:55:34.452Z,12.05
2018-01-29T09:58:00.880Z,12.68
2018-01-29T10:00:27.289Z,13.90
2018-01-29T10:02:54.514Z,14.27
2018-01-29T10:05:20.975Z,13.60
2018-01-29T10:07:48.174Z,13.45
2018-01-29T10:10:14.634Z,11.93
2018-01-29T10:12:41.039Z,13.35
2018-01-29T10:15:07.466Z,13.82
2018-01-29T10:17:33.950Z,14.43
2018-01-29T10:20:00.346Z,12.13
2018-01-29T10:22:26.768Z,15.25
2018-01-29T10:24:53.185Z,12.98
2018-01-29T10:27:19.609Z,13.80
2018-01-29T10:29:46.059Z,14.43
2018-01-29T10:32:12.548Z,10.50
2018-01-29T10:34:38.947Z,12.68
2018-01-29T10:37:05.357Z,13.25
2018-01-29T10:39:31.794Z,11.95
2018-01-29T10:41:58.249Z,10.68
2018-01-29T10:44:24.730Z,11.65
2018-01-29T10:46:51.117Z,10.60
2018-01-29T10:49:17.557Z,11.18
2018-01-29T10:51:43.955Z,9.32
2018-01-29T10:54:11.122Z,10.50
2018-01-29T10:56:37.674Z,10.52
2018-01-29T10:59:04.047Z,9.57
2018-01-29T11:01:30.512Z,9.77
2018-01-29T11:03:57.665Z,9.77
2018-01-29T11:06:24.857Z,10.35
2018-01-29T11:08:51.283Z,10.32
2018-01-29T11:11:17.700Z,11.88
2018-01-29T11:13:44.099Z,9.48
2018-01-29T11:16:11.283Z,10.43
2018-01-29T11:18:37.668Z,11.23
2018-01-29T11:21:04.093Z,10.60
2018-01-29T11:23:30.529Z,11.45
2018-01-29T11:25:56.924Z,10.57
2018-01-29T11:28:23.349Z,9.60
2018-01-29T11:30:49.733Z,9.73
2018-01-29T11:33:16.162Z,8.70
2018-01-29T11:35:42.582Z,9.45
2018-01-29T11:38:09.039Z,8.52
2018-01-29T11:40:35.458Z,8.90
2018-01-29T11:43:01.858Z,8.25
2018-01-29T11:45:28.285Z,8.13
2018-01-29T11:47:54.697Z,8.73
2018-01-29T11:50:21.168Z,10.48
2018-01-29T11:52:47.563Z,9.13
2018-01-29T11:55:14.735Z,9.38
2018-01-29T11:57:41.873Z,7.65
2018-01-29T12:00:09.059Z,8.85
2018-01-29T12:02:35.498Z,8.07
2018-01-29T12:05:01.906Z,8.43
2018-01-29T12:07:29.019Z,8.30
2018-01-29T12:09:56.205Z,7.70
2018-01-29T12:12:23.357Z,9.27
2018-01-29T12:14:50.546Z,7.43
2018-01-29T12:17:16.921Z,7.82
2018-01-29T12:19:43.335Z,7.18
2018-01-29T12:22:09.748Z,6.25
2018-01-29T12:24:36.169Z,5.95
2018-01-29T12:27:02.639Z,5.72
2018-01-29T12:29:29.100Z,6.05
2018-01-29T12:31:55.534Z,7.00
2018-01-29T12:34:21.981Z,5.95
2018-01-29T12:36:49.142Z,8.80
2018-01-29T12:39:16.261Z,5.90
2018-01-29T12:41:42.705Z,6.30
2018-01-29T12:44:09.162Z,5.68
2018-01-29T12:46:36.398Z,6.60
2018-01-29T12:49:02.805Z,5.95
2018-01-29T12:51:29.289Z,5.55
2018-01-29T12:53:56.410Z,5.68
2018-01-29T12:56:23.706Z,5.55
2018-01-29T12:58:50.148Z,7.10
2018-01-29T13:01:16.558Z,6.32
2018-01-29T13:03:43.758Z,7.53
2018-01-29T13:06:10.167Z,7.90
2018-01-29T13:08:36.589Z,5.40
2018-01-29T13:11:03.004Z,5.28
2018-01-29T13:13:30.199Z,5.40
2018-01-29T13:15:56.615Z,6.30
2018-01-29T13:18:23.024Z,5.60
2018-01-29T13:20:49.421Z,6.35
2018-01-29T13:23:15.884Z,5.32
2018-01-29T13:25:42.278Z,5.50
2018-01-29T13:28:08.733Z,6.35
2018-01-29T13:30:35.147Z,5.53
2018-01-29T13:33:01.528Z,5.15
2018-01-29T13:35:28.697Z,5.03
2018-01-29T13:37:55.893Z,5.07
2018-01-29T13:40:22.312Z,5.05
2018-01-29T13:42:48.798Z,4.75
2018-01-29T13:45:15.243Z,5.30
2018-01-29T13:47:42.394Z,6.03
2018-01-29T13:50:09.542Z,5.60
2018-01-29T13:52:36.729Z,5.53
2018-01-29T13:55:03.160Z,5.28
2018-01-29T13:57:29.561Z,6.25
2018-01-29T13:59:56.695Z,5.70
2018-01-29T14:02:23.173Z,5.40
2018-01-29T14:04:49.609Z,5.62
2018-01-29T14:07:16.030Z,4.00
2018-01-29T14:09:43.148Z,4.35
2018-01-29T14:12:09.559Z,4.65
2018-01-29T14:14:35.969Z,4.47
2018-01-29T14:17:02.381Z,4.40
2018-01-29T14:19:28.837Z,4.28
2018-01-29T14:21:55.222Z,4.00
2018-01-29T14:24:21.635Z,3.83
2018-01-29T14:26:48.109Z,4.12
2018-01-29T14:29:15.296Z,4.30
2018-01-29T14:31:41.750Z,3.90
2018-01-29T14:34:08.162Z,3.95
2018-01-29T14:36:34.757Z,4.22
2018-01-29T14:39:01.196Z,4.10
2018-01-29T14:41:27.621Z,3.90
2018-01-29T14:43:54.005Z,4.25
2018-01-29T14:46:20.430Z,3.90
2018-01-29T14:48:46.850Z,4.28
2018-01-29T14:51:14.036Z,3.67
2018-01-29T14:53:40.505Z,4.82
2018-01-29T14:56:07.653Z,3.85
2018-01-29T14:58:35.275Z,3.35
2018-01-29T15:01:01.702Z,4.15
2018-01-29T15:03:28.213Z,3.90
2018-01-29T15:05:55.363Z,3.65
2018-01-29T15:08:22.644Z,4.95
2018-01-29T15:10:49.080Z,4.85
2018-01-29T15:13:15.469Z,3.42
2018-01-29T15:15:41.891Z,4.07
2018-01-29T15:18:08.338Z,4.70
2018-01-29T15:20:34.742Z,4.50
2018-01-29T15:23:01.166Z,3.85
2018-01-29T15:25:27.593Z,3.78
2018-01-29T15:27:53.993Z,3.67
2018-01-29T15:30:21.119Z,4.15
2018-01-29T15:32:47.524Z,6.40
2018-01-29T15:35:13.976Z,4.62
2018-01-29T15:37:40.409Z,4.70
2018-01-29T15:40:06.878Z,4.68
2018-01-29T15:42:33.333Z,5.15
2018-01-29T15:45:00.487Z,6.75
2018-01-29T15:47:27.028Z,5.70
2018-01-29T15:49:53.445Z,4.53
2018-01-29T15:52:20.635Z,3.90
2018-01-29T15:54:47.054Z,4.05
2018-01-29T15:57:13.507Z,4.90
2018-01-29T15:59:39.917Z,4.40
2018-01-29T16:02:06.358Z,3.33
2018-01-29T16:04:32.734Z,3.95
2018-01-29T16:06:59.219Z,4.25
2018-01-29T16:09:25.639Z,5.18
2018-01-29T16:11:52.788Z,4.43
2018-01-29T16:14:19.989Z,4.57
2018-01-29T16:16:46.396Z,4.65
2018-01-29T16:19:12.810Z,5.50
2018-01-29T16:21:39.963Z,5.80
2018-01-29T16:24:07.135Z,6.90
2018-01-29T16:26:33.544Z,5.87
2018-01-29T16:29:00.785Z,8.52
2018-01-29T16:31:27.267Z,6.75
2018-01-29T16:33:53.722Z,7.07
2018-01-29T16:36:20.206Z,9.02
2018-01-29T16:38:47.424Z,6.90
2018-01-29T16:41:13.900Z,8.30
2018-01-29T16:43:40.338Z,6.97
2018-01-29T16:46:07.543Z,6.55
2018-01-29T16:48:33.997Z,6.80
2018-01-29T16:51:00.534Z,6.95
2018-01-29T16:53:27.843Z,5.90
2018-01-29T16:55:54.259Z,6.15
2018-01-29T16:58:21.477Z,6.95
2018-01-29T17:00:47.905Z,6.72
2018-01-29T17:03:14.333Z,7.65
2018-01-29T17:05:40.754Z,8.05
2018-01-29T17:08:07.182Z,7.68
2018-01-29T17:10:33.661Z,7.18
2018-01-29T17:13:00.329Z,7.25
2018-01-29T17:15:26.894Z,9.27
2018-01-29T17:17:53.389Z,9.30
2018-01-29T17:20:20.604Z,9.70
2018-01-29T17:22:47.046Z,7.32
2018-01-29T17:25:13.502Z,7.07
2018-01-29T17:27:39.888Z,8.77
2018-01-29T17:30:06.312Z,9.35
2018-01-29T17:32:32.694Z,7.70
2018-01-29T17:34:59.140Z,8.73
2018-01-29T17:37:26.294Z,7.62
2018-01-29T17:39:53.496Z,8.40
2018-01-29T17:42:20.027Z,8.18
2018-01-29T17:44:46.544Z,10.98
2018-01-29T17:47:14.840Z,9.88
2018-01-29T17:49:41.285Z,7.78
2018-01-29T17:52:07.686Z,8.07
2018-01-29T17:54:34.170Z,8.90
2018-01-29T17:57:00.811Z,7.78
2018-01-29T17:59:27.244Z,10.13
2018-01-29T18:01:53.685Z,8.57
2018-01-29T18:04:20.159Z,10.90
2018-01-29T18:06:47.382Z,8.98
2018-01-29T18:09:13.836Z,9.85
2018-01-29T18:11:41.020Z,10.13
2018-01-29T18:14:07.472Z,10.40
2018-01-29T18:16:33.911Z,9.50
2018-01-29T18:19:00.335Z,9.52
2018-01-29T18:21:26.741Z,8.75
2018-01-29T18:23:54.025Z,9.30
2018-01-29T18:26:20.410Z,9.10
2018-01-29T18:28:46.827Z,8.60
2018-01-29T18:31:13.222Z,6.62
2018-01-29T18:33:39.654Z,6.50
2018-01-29T18:36:06.202Z,7.47
2018-01-29T18:38:32.709Z,8.02
2018-01-29T18:40:59.198Z,7.75
2018-01-29T18:43:25.663Z,7.82
2018-01-29T18:45:52.905Z,6.93
2018-01-29T18:48:19.384Z,6.97
2018-01-29T18:50:45.994Z,5.85
2018-01-29T18:53:13.185Z,6.65
2018-01-29T18:55:39.607Z,6.50
2018-01-29T18:58:06.018Z,6.00
2018-01-29T19:00:33.249Z,6.03
2018-01-29T19:02:59.705Z,5.37
2018-01-29T19:05:26.935Z,6.65
2018-01-29T19:07:53.334Z,7.10
2018-01-29T19:10:19.971Z,6.40
2018-01-29T19:12:46.613Z,5.90
2018-01-29T19:15:13.147Z,6.78
2018-01-29T19:17:39.690Z,6.12
2018-01-29T19:20:06.383Z,7.53
2018-01-29T19:22:33.733Z,7.28
2018-01-29T19:25:01.338Z,7.20
2018-01-29T19:27:29.927Z,7.25
2018-01-29T19:29:56.398Z,6.70
2018-01-29T19:32:22.903Z,16.90
2018-01-29T19:34:49.446Z,8.98
2018-01-29T19:37:17.286Z,8.13
2018-01-29T19:39:44.124Z,8.85
2018-01-29T19:42:10.543Z,13.45
2018-01-29T19:44:37.942Z,8.13
2018-01-29T19:47:04.345Z,9.77
2018-01-29T19:49:30.815Z,7.72
2018-01-29T19:51:57.268Z,8.90
2018-01-29T19:54:23.707Z,8.15
2018-01-29T19:56:51.141Z,8.10
2018-01-29T19:59:18.496Z,7.18
2018-01-29T20:01:45.006Z,6.35
2018-01-29T20:04:11.537Z,6.00
2018-01-29T20:06:38.771Z,5.18
2018-01-29T20:09:05.270Z,6.10
2018-01-29T20:11:31.796Z,6.03
2018-01-29T20:13:58.259Z,4.70
2018-01-29T20:16:24.769Z,5.60
2018-01-29T20:18:51.213Z,4.90
2018-01-29T20:21:17.661Z,4.70
2018-01-29T20:23:44.056Z,5.65
2018-01-29T20:26:10.487Z,4.07
2018-01-29T20:28:43.838Z,4.90
2018-01-29T20:31:10.302Z,5.05
2018-01-29T20:33:37.023Z,5.35
2018-01-29T20:36:03.541Z,5.90
2018-01-29T20:38:30.099Z,5.75
2018-01-29T20:40:57.391Z,5.32
2018-01-29T20:43:23.975Z,4.60
2018-01-29T20:45:50.381Z,6.18
2018-01-29T20:48:16.773Z,6.03
2018-01-29T20:50:43.942Z,8.43
2018-01-29T20:53:10.361Z,5.03
2018-01-29T20:55:37.510Z,6.55
2018-01-29T20:58:04.769Z,5.10
2018-01-29T21:00:31.189Z,5.12
2018-01-29T21:02:57.672Z,5.12
2018-01-29T21:05:24.078Z,6.43
2018-01-29T21:07:51.244Z,5.47
2018-01-29T21:10:17.687Z,6.95
2018-01-29T21:12:44.150Z,7.53
2018-01-29T21:15:10.565Z,6.68
2018-01-29T21:17:37.067Z,7.53
2018-01-29T21:20:04.286Z,8.23
2018-01-29T21:22:30.686Z,6.47
2018-01-29T21:24:57.185Z,7.80
2018-01-29T21:27:24.356Z,6.95
2018-01-29T21:29:50.769Z,9.15
2018-01-29T21:32:17.961Z,7.80
2018-01-29T21:34:44.391Z,8.30
2018-01-29T21:37:10.880Z,9.90
2018-01-29T21:39:37.269Z,8.63
2018-01-29T21:42:03.728Z,8.75
2018-01-29T21:44:30.924Z,10.02
2018-01-29T21:46:58.176Z,7.82
2018-01-29T21:49:24.600Z,8.60
2018-01-29T21:51:51.754Z,9.35
2018-01-29T21:54:18.878Z,9.75
2018-01-29T21:56:45.337Z,6.80
2018-01-29T21:59:11.889Z,5.70
2018-01-29T22:01:38.338Z,5.55
2018-01-29T22:04:04.799Z,5.35
2018-01-29T22:06:31.287Z,3.55
2018-01-29T22:08:58.444Z,3.55
2018-01-29T22:11:25.585Z,3.17
2018-01-29T22:13:52.741Z,2.40
2018-01-29T22:16:19.894Z,3.20
2018-01-29T22:18:47.131Z,4.70
2018-01-29T22:21:14.301Z,3.45
2018-01-29T22:23:41.447Z,2.70
2018-01-29T22:26:08.648Z,3.60
2018-01-29T22:28:35.090Z,3.47
2018-01-29T22:31:01.495Z,3.92
2018-01-29T22:33:28.666Z,3.45
2018-01-29T22:35:55.089Z,3.80
2018-01-29T22:38:21.550Z,4.43
2018-01-29T22:40:47.997Z,4.00
2018-01-29T22:43:14.377Z,3.47
2018-01-29T22:45:40.850Z,3.37
2018-01-29T22:48:07.272Z,4.05
2018-01-29T22:50:33.678Z,2.95
2018-01-29T22:53:00.077Z,3.50
2018-01-29T22:55:26.503Z,4.07
2018-01-29T22:57:53.058Z,2.50
2018-01-29T23:00:19.535Z,2.60
2018-01-29T23:02:45.922Z,4.20
2018-01-29T23:05:12.338Z,3.10
2018-01-29T23:07:38.732Z,3.03
2018-01-29T23:10:05.173Z,2.40
2018-01-29T23:12:31.560Z,2.83
2018-01-29T23:14:58.001Z,2.45
2018-01-29T23:17:25.146Z,2.42
2018-01-29T23:19:51.556Z,2.12
2018-01-29T23:22:17.968Z,1.85
2018-01-29T23:24:44.392Z,2.33
2018-01-29T23:27:10.802Z,2.25
2018-01-29T23:29:37.929Z,1.83
2018-01-29T23:32:04.375Z,2.40
2018-01-29T23:34:31.585Z,2.50
2018-01-29T23:36:58.098Z,1.85
2018-01-29T23:39:24.522Z,1.87
2018-01-29T23:41:50.945Z,1.62
2018-01-29T23:44:18.134Z,1.50
2018-01-29T23:46:44.617Z,1.65
2018-01-29T23:49:11.013Z,1.60
2018-01-29T23:51:37.492Z,2.25
2018-01-29T23:54:03.890Z,1.40
2018-01-29T23:56:30.303Z,1.52
2018-01-29T23:58:56.738Z,1.50
